Time;durP1;ratioP1;P1;durP2;ratioP2;P2;SDS_P1;SDS_P2;PMS_P1;PMS_P2;Temp;Humidity;BMP_temperature;BMP_pressure;BME280_temperature;BME280_humidity;BME280_pressure;Samples;Min_cycle;Max_cycle;Signal;HPM_P1;HPM_P2
2023/04/22 00:02:06;;;;;;;8.75;8.05;;;;;;;;;;4892929;29;20030;-76
2023/04/22 00:04:32;;;;;;;10.13;9.13;;;;;;;;;;4873350;29;20578;-75
2023/04/22 00:07:00;;;;;;;8.98;8.15;;;;;;;;;;4891499;29;20025;-75
2023/04/22 00:09:25;;;;;;;8.95;8.25;;;;;;;;;;4872739;29;20119;-76
2023/04/22 00:11:50;;;;;;;10.02;9.05;;;;;;;;;;4874052;29;20128;-75
2023/04/22 00:14:16;;;;;;;9.35;8.55;;;;;;;;;;4873034;29;20059;-76
2023/04/22 00:16:41;;;;;;;10.80;9.82;;;;;;;;;;4875833;29;20036;-75
2023/04/22 00:19:06;;;;;;;9.40;8.60;;;;;;;;;;4895605;29;20028;-75
2023/04/22 00:21:32;;;;;;;8.48;7.60;;;;;;;;;;4877459;29;20029;-76
2023/04/22 00:23:57;;;;;;;8.90;8.18;;;;;;;;;;4876550;29;20088;-75
2023/04/22 00:26:23;;;;;;;11.10;10.10;;;;;;;;;;4892401;29;20612;-75
2023/04/22 00:28:48;;;;;;;10.85;9.38;;;;;;;;;;4892245;29;20088;-75
2023/04/22 00:31:13;;;;;;;9.73;8.82;;;;;;;;;;4875292;29;20096;-75
2023/04/22 00:33:38;;;;;;;11.65;9.18;;;;;;;;;;4874788;29;20103;-76
2023/04/22 00:36:04;;;;;;;9.93;9.00;;;;;;;;;;4892427;29;20025;-76
2023/04/22 00:38:29;;;;;;;11.90;9.48;;;;;;;;;;4892810;29;20021;-75
2023/04/22 00:40:55;;;;;;;9.70;8.70;;;;;;;;;;4891998;29;20479;-76
2023/04/22 00:43:20;;;;;;;11.07;10.07;;;;;;;;;;4875221;29;20627;-75
2023/04/22 00:45:46;;;;;;;10.77;9.88;;;;;;;;;;4891268;29;20040;-75
2023/04/22 00:48:12;;;;;;;10.98;10.00;;;;;;;;;;4874359;29;20036;-78
2023/04/22 00:50:38;;;;;;;9.75;8.82;;;;;;;;;;4891442;29;20724;-76
2023/04/22 00:53:04;;;;;;;10.95;10.05;;;;;;;;;;4892084;29;20028;-76
2023/04/22 00:55:29;;;;;;;11.02;10.23;;;;;;;;;;4909522;29;20350;-76
2023/04/22 00:57:57;;;;;;;9.52;8.73;;;;;;;;;;4908645;29;20032;-76
2023/04/22 01:00:25;;;;;;;10.52;9.52;;;;;;;;;;4910154;29;20021;-76
2023/04/22 01:02:51;;;;;;;9.70;8.80;;;;;;;;;;4909831;29;20024;-76
2023/04/22 01:05:16;;;;;;;11.48;10.43;;;;;;;;;;4888443;29;20108;-76
2023/04/22 01:07:42;;;;;;;10.50;9.48;;;;;;;;;;4908349;29;20058;-76
2023/04/22 01:10:07;;;;;;;10.07;9.00;;;;;;;;;;4909323;29;20050;-76
2023/04/22 01:12:32;;;;;;;9.77;8.98;;;;;;;;;;4908171;29;20051;-76
2023/04/22 01:14:58;;;;;;;10.35;9.55;;;;;;;;;;4891586;29;20119;-75
2023/04/22 01:17:23;;;;;;;9.35;8.45;;;;;;;;;;4908357;29;20051;-76
2023/04/22 01:19:49;;;;;;;8.65;7.93;;;;;;;;;;4908198;29;20063;-77
2023/04/22 01:22:14;;;;;;;10.05;9.13;;;;;;;;;;4909362;29;20072;-76
2023/04/22 01:24:40;;;;;;;9.95;9.13;;;;;;;;;;4909846;29;20051;-76
2023/04/22 01:27:05;;;;;;;12.95;11.85;;;;;;;;;;4888451;29;20059;-76
2023/04/22 01:29:31;;;;;;;14.55;12.75;;;;;;;;;;4907399;29;20095;-76
2023/04/22 01:31:56;;;;;;;15.13;11.73;;;;;;;;;;4909256;29;20024;-76
2023/04/22 01:34:21;;;;;;;13.35;12.20;;;;;;;;;;4908632;29;20067;-76
2023/04/22 01:36:47;;;;;;;12.57;11.50;;;;;;;;;;4909599;29;20016;-76
2023/04/22 01:39:12;;;;;;;24.98;19.42;;;;;;;;;;4907491;29;20064;-76
2023/04/22 01:41:37;;;;;;;14.77;13.25;;;;;;;;;;4901789;29;20025;-77
2023/04/22 01:44:03;;;;;;;11.75;10.65;;;;;;;;;;4900148;29;20065;-76
2023/04/22 01:46:28;;;;;;;11.75;10.85;;;;;;;;;;4886913;29;20017;-76
2023/04/22 01:48:54;;;;;;;12.98;11.75;;;;;;;;;;4898430;29;20024;-76
2023/04/22 01:51:19;;;;;;;11.93;11.00;;;;;;;;;;4888823;29;20503;-76
2023/04/22 01:53:45;;;;;;;13.73;12.27;;;;;;;;;;4879570;29;20060;-77
2023/04/22 01:56:10;;;;;;;15.63;11.90;;;;;;;;;;4884206;29;20017;-76
2023/04/22 01:58:37;;;;;;;13.98;12.52;;;;;;;;;;4887150;29;20025;-76
2023/04/22 02:01:02;;;;;;;14.68;13.35;;;;;;;;;;4888805;29;20447;-76
2023/04/22 02:03:28;;;;;;;16.73;15.02;;;;;;;;;;4870878;29;20343;-78
2023/04/22 02:05:53;;;;;;;20.73;16.38;;;;;;;;;;4879874;29;20021;-76
2023/04/22 02:08:18;;;;;;;15.48;13.85;;;;;;;;;;4883923;29;20542;-76
2023/04/22 02:10:43;;;;;;;14.00;12.68;;;;;;;;;;4887206;29;20028;-77
2023/04/22 02:13:09;;;;;;;16.48;14.20;;;;;;;;;;4888649;29;21064;-76
2023/04/22 02:15:34;;;;;;;12.57;11.38;;;;;;;;;;4887125;29;20040;-76
2023/04/22 02:17:59;;;;;;;14.15;12.13;;;;;;;;;;4876411;29;20036;-76
2023/04/22 02:20:25;;;;;;;13.38;12.00;;;;;;;;;;4884537;29;20028;-76
2023/04/22 02:22:50;;;;;;;14.13;12.63;;;;;;;;;;4877843;29;20033;-76
2023/04/22 02:25:15;;;;;;;13.25;12.00;;;;;;;;;;4883674;29;20033;-76
2023/04/22 02:27:41;;;;;;;14.25;12.60;;;;;;;;;;4888493;29;20415;-76
2023/04/22 02:30:07;;;;;;;13.00;11.93;;;;;;;;;;4887456;29;20033;-76
2023/04/22 02:32:34;;;;;;;13.25;11.95;;;;;;;;;;4887107;29;20039;-77
2023/04/22 02:35:00;;;;;;;16.05;13.45;;;;;;;;;;4875845;29;20025;-76
2023/04/22 02:37:26;;;;;;;11.75;10.75;;;;;;;;;;4885415;29;20159;-76
2023/04/22 02:39:51;;;;;;;12.90;11.73;;;;;;;;;;4887125;29;20126;-76
2023/04/22 02:42:16;;;;;;;13.27;11.97;;;;;;;;;;4886548;29;20029;-76
2023/04/22 02:44:41;;;;;;;14.38;12.73;;;;;;;;;;4887897;29;20687;-76
2023/04/22 02:47:07;;;;;;;10.55;9.75;;;;;;;;;;4887938;29;20032;-76
2023/04/22 02:49:32;;;;;;;10.80;9.90;;;;;;;;;;4888052;29;20595;-76
2023/04/22 02:51:57;;;;;;;13.48;12.00;;;;;;;;;;4885561;29;20034;-76
2023/04/22 02:54:22;;;;;;;13.23;11.75;;;;;;;;;;4885328;29;20487;-76
2023/04/22 02:56:48;;;;;;;12.25;11.25;;;;;;;;;;4887981;29;20076;-77
2023/04/22 02:59:13;;;;;;;11.95;10.85;;;;;;;;;;4887854;29;20143;-77
2023/04/22 03:01:38;;;;;;;12.55;11.38;;;;;;;;;;4888133;29;20475;-76
2023/04/22 03:04:03;;;;;;;12.93;11.20;;;;;;;;;;4888440;29;20040;-76
2023/04/22 03:06:29;;;;;;;12.60;11.45;;;;;;;;;;4881137;29;20029;-76
2023/04/22 03:08:55;;;;;;;13.63;12.43;;;;;;;;;;4886005;29;20059;-76
2023/04/22 03:11:20;;;;;;;11.77;10.73;;;;;;;;;;4886935;29;20068;-76
2023/04/22 03:13:46;;;;;;;16.20;14.60;;;;;;;;;;4886665;29;20137;-76
2023/04/22 03:16:11;;;;;;;16.48;14.85;;;;;;;;;;4887657;29;20072;-76
2023/04/22 03:18:36;;;;;;;16.15;14.45;;;;;;;;;;4883152;29;20060;-75
2023/04/22 03:21:02;;;;;;;12.07;11.07;;;;;;;;;;4886233;29;20020;-75
2023/04/22 03:23:28;;;;;;;12.93;11.75;;;;;;;;;;4886889;29;20511;-75
2023/04/22 03:25:53;;;;;;;15.15;12.90;;;;;;;;;;4886765;29;20114;-75
2023/04/22 03:28:18;;;;;;;15.35;13.15;;;;;;;;;;4884802;29;20053;-75
2023/04/22 03:30:43;;;;;;;17.58;15.73;;;;;;;;;;4885287;29;20532;-76
2023/04/22 03:33:10;;;;;;;20.92;18.83;;;;;;;;;;4879672;29;20088;-76
2023/04/22 03:35:35;;;;;;;23.02;20.20;;;;;;;;;;4885740;29;20032;-76
2023/04/22 03:38:00;;;;;;;16.20;14.52;;;;;;;;;;4887855;29;20040;-75
2023/04/22 03:40:26;;;;;;;12.45;11.15;;;;;;;;;;4885024;29;20040;-76
2023/04/22 03:42:51;;;;;;;14.93;13.07;;;;;;;;;;4886810;29;20088;-76
2023/04/22 03:45:16;;;;;;;18.98;17.02;;;;;;;;;;4883068;29;20041;-77
2023/04/22 03:47:41;;;;;;;24.08;20.38;;;;;;;;;;4878142;29;20101;-75
2023/04/22 03:50:07;;;;;;;21.42;18.67;;;;;;;;;;4886221;29;20032;-76
2023/04/22 03:52:32;;;;;;;21.23;19.08;;;;;;;;;;4886709;29;20503;-76
2023/04/22 03:54:57;;;;;;;24.48;18.20;;;;;;;;;;4902597;29;20064;-76
2023/04/22 03:57:23;;;;;;;20.88;18.67;;;;;;;;;;4884117;29;20083;-76
2023/04/22 03:59:48;;;;;;;23.85;20.67;;;;;;;;;;4897644;29;20032;-79
2023/04/22 04:02:13;;;;;;;20.65;18.08;;;;;;;;;;4902855;29;20115;-76
2023/04/22 04:04:38;;;;;;;18.95;17.05;;;;;;;;;;4887988;29;20127;-76
2023/04/22 04:07:06;;;;;;;27.10;22.80;;;;;;;;;;4888846;29;20024;-77
2023/04/22 04:09:31;;;;;;;14.85;13.48;;;;;;;;;;4876031;29;20485;-76
2023/04/22 04:11:57;;;;;;;12.75;11.38;;;;;;;;;;4889425;29;20029;-76
2023/04/22 04:14:22;;;;;;;13.00;11.80;;;;;;;;;;4889642;29;20016;-76
2023/04/22 04:16:47;;;;;;;13.13;11.50;;;;;;;;;;4897904;29;20070;-77
2023/04/22 04:19:12;;;;;;;11.18;10.18;;;;;;;;;;4896436;29;20454;-77
2023/04/22 04:21:38;;;;;;;11.37;10.20;;;;;;;;;;4888748;29;20035;-79
2023/04/22 04:24:04;;;;;;;8.95;8.05;;;;;;;;;;4896652;29;20379;-78
2023/04/22 04:26:31;;;;;;;8.57;7.80;;;;;;;;;;4889101;29;20035;-78
2023/04/22 04:28:56;;;;;;;6.75;6.25;;;;;;;;;;4905429;29;20028;-78
2023/04/22 04:31:23;;;;;;;7.05;6.07;;;;;;;;;;4878519;29;20087;-75
2023/04/22 04:33:49;;;;;;;6.43;5.82;;;;;;;;;;4887743;29;20038;-78
2023/04/22 04:36:14;;;;;;;6.07;5.68;;;;;;;;;;4892880;29;20055;-77
2023/04/22 04:38:39;;;;;;;5.72;5.05;;;;;;;;;;4899262;29;20024;-77
2023/04/22 04:41:07;;;;;;;7.67;7.10;;;;;;;;;;4885755;29;20047;-77
2023/04/22 04:43:32;;;;;;;6.50;6.00;;;;;;;;;;4887688;29;20252;-77
2023/04/22 04:45:58;;;;;;;18.60;17.10;;;;;;;;;;4888498;29;20043;-77
2023/04/22 04:48:26;;;;;;;11.32;10.32;;;;;;;;;;4902581;29;20029;-77
2023/04/22 04:50:52;;;;;;;9.10;8.23;;;;;;;;;;4876651;29;20479;-76
2023/04/22 04:53:20;;;;;;;8.63;7.82;;;;;;;;;;4887917;29;20486;-77
2023/04/22 04:55:45;;;;;;;7.03;6.43;;;;;;;;;;4906014;29;20445;-77
2023/04/22 04:58:11;;;;;;;15.73;12.35;;;;;;;;;;4905951;29;20083;-77
2023/04/22 05:00:36;;;;;;;17.47;13.13;;;;;;;;;;4906077;29;20013;-76
2023/04/22 05:03:02;;;;;;;16.07;12.57;;;;;;;;;;4905059;29;20347;-77
2023/04/22 05:05:27;;;;;;;11.13;10.13;;;;;;;;;;4897789;29;20742;-77
2023/04/22 05:07:52;;;;;;;51.22;41.22;;;;;;;;;;4904063;29;20437;-75
2023/04/22 05:10:18;;;;;;;8.30;7.60;;;;;;;;;;4901365;29;20078;-78
2023/04/22 05:12:45;;;;;;;7.47;6.88;;;;;;;;;;4904818;29;20024;-78
2023/04/22 05:15:11;;;;;;;8.25;5.90;;;;;;;;;;4905363;29;20064;-77
2023/04/22 05:17:36;;;;;;;11.32;9.55;;;;;;;;;;4902817;29;20031;-78
2023/04/22 05:20:02;;;;;;;12.23;11.03;;;;;;;;;;4900093;29;20016;-76
2023/04/22 05:22:27;;;;;;;14.50;12.10;;;;;;;;;;4887818;29;20457;-76
2023/04/22 05:24:53;;;;;;;12.27;11.13;;;;;;;;;;4886263;29;20048;-77
2023/04/22 05:27:19;;;;;;;10.10;8.57;;;;;;;;;;4904345;29;20020;-78
2023/04/22 05:29:44;;;;;;;9.23;8.40;;;;;;;;;;4903580;29;20088;-76
2023/04/22 05:32:09;;;;;;;7.97;7.37;;;;;;;;;;4899693;29;20279;-77
2023/04/22 05:34:34;;;;;;;8.60;7.53;;;;;;;;;;4904866;29;20071;-76
2023/04/22 05:37:01;;;;;;;8.40;7.68;;;;;;;;;;4904019;29;20032;-77
2023/04/22 05:39:26;;;;;;;7.40;6.90;;;;;;;;;;4904277;29;20103;-77
2023/04/22 05:41:53;;;;;;;8.23;7.63;;;;;;;;;;4904922;29;20618;-76
2023/04/22 05:44:18;;;;;;;6.85;6.40;;;;;;;;;;4898424;29;20357;-77
2023/04/22 05:46:44;;;;;;;6.85;6.15;;;;;;;;;;4895810;29;20456;-76
2023/04/22 05:49:09;;;;;;;6.87;6.20;;;;;;;;;;4876256;29;20036;-77
2023/04/22 05:51:34;;;;;;;5.73;5.33;;;;;;;;;;4900137;29;20278;-77
2023/04/22 05:54:00;;;;;;;7.33;6.63;;;;;;;;;;4894357;29;20037;-77
2023/04/22 05:56:25;;;;;;;12.27;9.80;;;;;;;;;;4883644;29;20056;-77
2023/04/22 05:58:50;;;;;;;13.85;9.25;;;;;;;;;;4904220;29;20426;-77
2023/04/22 06:01:16;;;;;;;11.57;10.37;;;;;;;;;;4885525;29;20040;-77
2023/04/22 06:03:41;;;;;;;12.15;11.05;;;;;;;;;;4904878;29;20264;-77
2023/04/22 06:06:08;;;;;;;7.38;6.65;;;;;;;;;;4905112;29;20129;-77
2023/04/22 06:08:33;;;;;;;7.20;6.60;;;;;;;;;;4886387;29;20038;-77
2023/04/22 06:10:58;;;;;;;7.47;6.87;;;;;;;;;;4899770;29;20517;-77
2023/04/22 06:13:24;;;;;;;7.73;7.13;;;;;;;;;;4882179;29;20207;-80
2023/04/22 06:15:49;;;;;;;8.15;7.40;;;;;;;;;;4902662;29;20268;-77
2023/04/22 06:18:14;;;;;;;6.57;5.97;;;;;;;;;;4900308;29;20020;-77
2023/04/22 06:20:40;;;;;;;6.50;5.90;;;;;;;;;;4900337;29;20888;-77
2023/04/22 06:23:05;;;;;;;7.57;6.82;;;;;;;;;;4899457;29;20040;-77
2023/04/22 06:25:34;;;;;;;8.23;7.53;;;;;;;;;;4898927;29;20075;-80
2023/04/22 06:27:59;;;;;;;7.60;6.90;;;;;;;;;;4899139;29;20025;-79
2023/04/22 06:30:25;;;;;;;9.18;7.57;;;;;;;;;;4882818;29;20438;-78
2023/04/22 06:32:51;;;;;;;8.05;7.35;;;;;;;;;;4880491;29;20555;-79
2023/04/22 06:35:16;;;;;;;8.15;7.38;;;;;;;;;;4898862;29;20028;-78
2023/04/22 06:37:43;;;;;;;7.43;6.82;;;;;;;;;;4903097;29;20115;-78
2023/04/22 06:40:08;;;;;;;9.10;8.20;;;;;;;;;;4900777;29;20032;-78
2023/04/22 06:42:34;;;;;;;7.72;7.00;;;;;;;;;;4878848;29;20080;-77
2023/04/22 06:44:59;;;;;;;7.17;6.50;;;;;;;;;;4885111;29;20064;-79
2023/04/22 06:47:24;;;;;;;7.15;6.50;;;;;;;;;;4884501;29;20390;-77
2023/04/22 06:49:50;;;;;;;7.60;6.70;;;;;;;;;;4886434;29;20100;-79
2023/04/22 06:52:15;;;;;;;7.70;7.10;;;;;;;;;;4903421;29;20114;-77
2023/04/22 06:54:40;;;;;;;7.03;6.43;;;;;;;;;;4884306;29;20072;-77
2023/04/22 06:57:06;;;;;;;7.22;6.60;;;;;;;;;;4898652;29;20058;-78
2023/04/22 06:59:32;;;;;;;6.13;5.53;;;;;;;;;;4902531;29;20038;-77
2023/04/22 07:01:57;;;;;;;10.15;5.50;;;;;;;;;;4901229;29;20035;-78
2023/04/22 07:04:22;;;;;;;5.70;5.20;;;;;;;;;;4884020;29;20036;-79
2023/04/22 07:06:48;;;;;;;6.53;6.00;;;;;;;;;;4900409;29;20327;-79
2023/04/22 07:09:13;;;;;;;6.67;6.03;;;;;;;;;;4899407;29;20743;-77
2023/04/22 07:11:38;;;;;;;6.20;5.60;;;;;;;;;;4874523;29;20287;-77
2023/04/22 07:14:04;;;;;;;11.00;6.83;;;;;;;;;;4886957;29;20279;-78
2023/04/22 07:16:29;;;;;;;6.43;5.93;;;;;;;;;;4878783;29;20024;-78
2023/04/22 07:18:54;;;;;;;7.23;6.37;;;;;;;;;;4884649;29;20039;-78
2023/04/22 07:21:20;;;;;;;6.93;6.43;;;;;;;;;;4883402;29;20268;-77
2023/04/22 07:23:45;;;;;;;9.02;7.95;;;;;;;;;;4902994;29;20050;-79
2023/04/22 07:26:10;;;;;;;6.73;6.17;;;;;;;;;;4900408;29;20020;-77
2023/04/22 07:28:35;;;;;;;6.47;6.07;;;;;;;;;;4899293;29;20296;-78
2023/04/22 07:31:01;;;;;;;6.77;6.17;;;;;;;;;;4894412;29;20030;-78
2023/04/22 07:33:26;;;;;;;6.05;5.55;;;;;;;;;;4901752;29;21250;-79
2023/04/22 07:35:51;;;;;;;6.05;5.57;;;;;;;;;;4882221;29;20055;-78
2023/04/22 07:38:17;;;;;;;6.95;5.75;;;;;;;;;;4896884;29;20116;-80
2023/04/22 07:40:42;;;;;;;6.30;5.73;;;;;;;;;;4898582;29;20016;-78
2023/04/22 07:43:08;;;;;;;7.38;6.40;;;;;;;;;;4899738;29;20268;-81
2023/04/22 07:45:33;;;;;;;7.17;6.47;;;;;;;;;;4882044;29;20599;-80
2023/04/22 07:47:58;;;;;;;6.82;6.22;;;;;;;;;;4884420;29;20259;-79
2023/04/22 07:50:23;;;;;;;7.43;6.70;;;;;;;;;;4885475;29;20036;-77
2023/04/22 07:52:49;;;;;;;7.90;7.13;;;;;;;;;;4895109;29;20436;-80
2023/04/22 07:55:14;;;;;;;7.05;6.43;;;;;;;;;;4895065;29;20056;-78
2023/04/22 07:57:39;;;;;;;7.15;6.03;;;;;;;;;;4883547;29;20060;-79
2023/04/22 08:00:05;;;;;;;6.72;6.13;;;;;;;;;;4903442;29;20023;-78
2023/04/22 08:02:31;;;;;;;7.53;6.18;;;;;;;;;;4902600;29;20043;-79
2023/04/22 08:04:56;;;;;;;7.77;5.53;;;;;;;;;;4904117;29;20055;-79
2023/04/22 08:07:21;;;;;;;5.97;5.55;;;;;;;;;;4887874;29;20363;-79
2023/04/22 08:09:46;;;;;;;6.80;6.07;;;;;;;;;;4904777;29;20031;-79
2023/04/22 08:12:13;;;;;;;6.03;5.17;;;;;;;;;;4905111;29;20271;-79
2023/04/22 08:14:38;;;;;;;5.00;4.60;;;;;;;;;;4905752;29;20095;-80
2023/04/22 08:17:03;;;;;;;5.22;4.82;;;;;;;;;;4905349;29;20046;-78
2023/04/22 08:19:29;;;;;;;4.90;4.50;;;;;;;;;;4888465;29;20111;-79
2023/04/22 08:21:55;;;;;;;5.95;5.18;;;;;;;;;;4888422;29;20328;-78
2023/04/22 08:24:20;;;;;;;5.55;4.90;;;;;;;;;;4888222;29;20039;-79
2023/04/22 08:26:45;;;;;;;6.50;6.00;;;;;;;;;;4905399;29;20032;-80
2023/04/22 08:29:11;;;;;;;5.07;4.67;;;;;;;;;;4887971;29;20238;-78
2023/04/22 08:31:36;;;;;;;8.07;5.17;;;;;;;;;;4904370;29;20356;-79
2023/04/22 08:34:01;;;;;;;5.40;5.00;;;;;;;;;;4906900;29;20272;-78
2023/04/22 08:36:34;;;;;;;4.95;3.60;;;;;;;;;;4906825;29;20055;-78
2023/04/22 08:38:59;;;;;;;5.45;4.88;;;;;;;;;;4889360;29;20032;-78
2023/04/22 08:41:25;;;;;;;3.83;3.53;;;;;;;;;;4905456;29;20659;-78
2023/04/22 08:43:51;;;;;;;3.95;3.55;;;;;;;;;;4886892;29;20581;-78
2023/04/22 08:46:18;;;;;;;5.43;3.28;;;;;;;;;;4886420;29;20043;-77
2023/04/22 08:48:45;;;;;;;5.38;3.50;;;;;;;;;;4900677;29;20047;-77
2023/04/22 08:51:10;;;;;;;7.60;3.95;;;;;;;;;;4906897;29;20031;-78
2023/04/22 08:53:36;;;;;;;5.55;3.63;;;;;;;;;;4888015;29;20048;-78
2023/04/22 08:56:01;;;;;;;3.95;3.38;;;;;;;;;;4885019;29;20368;-80
2023/04/22 08:58:27;;;;;;;3.80;3.50;;;;;;;;;;4895394;29;20111;-78
2023/04/22 09:00:53;;;;;;;4.38;3.13;;;;;;;;;;4885154;29;20391;-80
2023/04/22 09:03:20;;;;;;;5.82;3.15;;;;;;;;;;4903053;29;20437;-78
2023/04/22 09:05:46;;;;;;;7.10;3.67;;;;;;;;;;4906294;29;20886;-80
2023/04/22 09:08:11;;;;;;;3.95;3.30;;;;;;;;;;4889517;29;20024;-79
2023/04/22 09:10:37;;;;;;;4.80;3.60;;;;;;;;;;4888200;29;20020;-78
2023/04/22 09:13:03;;;;;;;4.40;3.33;;;;;;;;;;4906536;29;20096;-79
2023/04/22 09:15:28;;;;;;;4.82;3.45;;;;;;;;;;4886294;29;20080;-80
2023/04/22 09:17:54;;;;;;;6.30;3.60;;;;;;;;;;4888783;29;20040;-78
2023/04/22 09:20:24;;;;;;;3.90;3.65;;;;;;;;;;4886903;29;20034;-79
2023/04/22 09:22:49;;;;;;;3.88;3.30;;;;;;;;;;4904001;29;20479;-78
2023/04/22 09:25:16;;;;;;;4.13;3.60;;;;;;;;;;4903821;29;20168;-78
2023/04/22 09:27:41;;;;;;;5.00;3.83;;;;;;;;;;4903807;29;20016;-80
2023/04/22 09:30:07;;;;;;;4.82;4.03;;;;;;;;;;4905010;29;20055;-81
2023/04/22 09:32:32;;;;;;;4.88;3.78;;;;;;;;;;4903583;29;20020;-80
2023/04/22 09:34:57;;;;;;;6.00;4.00;;;;;;;;;;4887515;29;20028;-78
2023/04/22 09:37:23;;;;;;;4.50;4.10;;;;;;;;;;4886475;29;20264;-79
2023/04/22 09:39:49;;;;;;;5.53;3.47;;;;;;;;;;4883479;29;20372;-79
2023/04/22 09:42:15;;;;;;;6.07;4.28;;;;;;;;;;4879810;29;20079;-78
2023/04/22 09:44:41;;;;;;;4.28;3.88;;;;;;;;;;4903426;29;20043;-77
2023/04/22 09:47:08;;;;;;;5.63;3.40;;;;;;;;;;4904498;29;20423;-78
2023/04/22 09:49:37;;;;;;;5.20;3.60;;;;;;;;;;4884601;29;20034;-78
2023/04/22 09:52:02;;;;;;;4.20;3.63;;;;;;;;;;4880015;29;20567;-79
2023/04/22 09:54:28;;;;;;;3.75;3.45;;;;;;;;;;4899264;29;20056;-80
2023/04/22 09:56:53;;;;;;;4.93;3.55;;;;;;;;;;4886373;29;20032;-80
2023/04/22 09:59:23;;;;;;;6.43;3.10;;;;;;;;;;4905142;29;20032;-79
2023/04/22 10:01:51;;;;;;;8.85;2.67;;;;;;;;;;4904772;29;20028;-79
2023/04/22 10:04:38;;;;;;;5.20;2.97;;;;;;;;;;4885136;29;20040;-80
2023/04/22 10:07:03;;;;;;;3.90;2.38;;;;;;;;;;4890052;29;20028;-81
2023/04/22 10:09:29;;;;;;;5.25;2.50;;;;;;;;;;4872049;29;20384;-82
2023/04/22 10:11:56;;;;;;;8.02;2.35;;;;;;;;;;4887507;29;20035;-80
2023/04/22 10:14:22;;;;;;;4.97;2.00;;;;;;;;;;4904778;29;20017;-81
2023/04/22 10:16:49;;;;;;;1.60;1.48;;;;;;;;;;4904259;29;20624;-83
2023/04/22 10:19:24;;;;;;;4.13;1.77;;;;;;;;;;4869670;29;20028;-79
2023/04/22 10:21:53;;;;;;;5.25;2.53;;;;;;;;;;4874230;29;20028;-81
2023/04/22 10:24:19;;;;;;;6.40;2.33;;;;;;;;;;4886174;29;20040;-80
2023/04/22 10:26:49;;;;;;;2.20;1.77;;;;;;;;;;4887559;29;20054;-81
2023/04/22 10:29:16;;;;;;;1.55;1.45;;;;;;;;;;4896920;29;20070;-78
2023/04/22 10:32:04;;;;;;;2.75;1.45;;;;;;;;;;4874504;29;21003;-79
2023/04/22 10:34:33;;;;;;;4.03;1.52;;;;;;;;;;4873638;29;20033;-83
2023/04/22 10:36:59;;;;;;;;;;;;;;;;;;4890701;29;20033;-84
2023/04/22 10:39:25;;;;;;;3.67;1.50;;;;;;;;;;4880425;29;20333;-81
2023/04/22 10:41:51;;;;;;;6.85;1.77;;;;;;;;;;4874563;29;20273;-81
2023/04/22 10:44:18;;;;;;;3.25;1.50;;;;;;;;;;4876714;29;20039;-82
2023/04/22 10:46:49;;;;;;;2.25;1.52;;;;;;;;;;4903352;29;20092;-82
2023/04/22 10:49:22;;;;;;;5.43;2.00;;;;;;;;;;4886894;29;20052;-81
2023/04/22 10:51:51;;;;;;;3.65;2.58;;;;;;;;;;4884016;29;20024;-83
2023/04/22 10:54:35;;;;;;;3.30;3.00;;;;;;;;;;4884461;29;20060;-83
2023/04/22 10:57:10;;;;;;;3.10;2.80;;;;;;;;;;4884866;29;20046;-83
2023/04/22 10:59:41;;;;;;;2.40;2.20;;;;;;;;;;4883781;29;20451;-82
2023/04/22 11:02:07;;;;;;;4.05;1.67;;;;;;;;;;4883676;29;20491;-83
2023/04/22 11:04:33;;;;;;;6.53;2.17;;;;;;;;;;4886509;29;20087;-81
2023/04/22 11:07:19;;;;;;;3.85;2.20;;;;;;;;;;4886793;29;20025;-79
2023/04/22 11:09:48;;;;;;;4.45;2.30;;;;;;;;;;4903247;29;20035;-84
2023/04/22 11:12:32;;;;;;;2.67;2.28;;;;;;;;;;4903605;29;20115;-81
2023/04/22 11:14:58;;;;;;;3.22;2.08;;;;;;;;;;4876296;29;20039;-84
2023/04/22 11:17:23;;;;;;;8.05;2.22;;;;;;;;;;4882965;29;20024;-84
2023/04/22 11:19:54;;;;;;;2.53;1.77;;;;;;;;;;4873374;29;20033;-84
2023/04/22 11:22:21;;;;;;;3.28;2.00;;;;;;;;;;4877192;29;20054;-86
2023/04/22 11:24:56;;;;;;;4.32;2.03;;;;;;;;;;4903037;29;20167;-79
2023/04/22 11:27:29;;;;;;;2.40;1.83;;;;;;;;;;4881225;29;20024;-78
2023/04/22 11:30:14;;;;;;;3.28;2.03;;;;;;;;;;4903755;29;20020;-79
2023/04/22 11:32:44;;;;;;;1.75;1.63;;;;;;;;;;4889773;29;20517;-80
2023/04/22 11:35:19;;;;;;;3.17;1.80;;;;;;;;;;4889693;29;20566;-85
2023/04/22 11:37:49;;;;;;;2.33;1.23;;;;;;;;;;4890632;29;20111;-85
2023/04/22 11:40:34;;;;;;;2.40;1.23;;;;;;;;;;4890147;29;20028;-83
2023/04/22 11:43:02;;;;;;;1.98;1.20;;;;;;;;;;4878167;29;20404;-82
2023/04/22 11:45:29;;;;;;;1.83;1.20;;;;;;;;;;4890554;29;20048;-81
2023/04/22 11:47:55;;;;;;;2.38;1.08;;;;;;;;;;4907755;29;20379;-83
2023/04/22 11:50:25;;;;;;;2.63;1.45;;;;;;;;;;4890254;29;20490;-79
2023/04/22 11:52:50;;;;;;;2.10;1.08;;;;;;;;;;4890198;29;20032;-83
2023/04/22 11:55:18;;;;;;;1.13;1.03;;;;;;;;;;4889484;29;20064;-81
2023/04/22 11:57:44;;;;;;;1.70;1.10;;;;;;;;;;4890329;29;20284;-81
2023/04/22 12:00:11;;;;;;;1.15;0.95;;;;;;;;;;4886385;29;20853;-82
2023/04/22 12:02:36;;;;;;;2.22;1.40;;;;;;;;;;4885597;29;20218;-80
2023/04/22 12:05:02;;;;;;;2.00;1.15;;;;;;;;;;4906846;29;20032;-82
2023/04/22 12:07:27;;;;;;;1.50;1.25;;;;;;;;;;4890079;29;20431;-83
2023/04/22 12:09:53;;;;;;;4.80;1.40;;;;;;;;;;4889877;29;20052;-82
2023/04/22 12:12:22;;;;;;;4.88;1.60;;;;;;;;;;4886954;29;20069;-84
2023/04/22 12:14:50;;;;;;;3.72;1.73;;;;;;;;;;4897350;29;20043;-84
2023/04/22 12:17:26;;;;;;;2.55;1.60;;;;;;;;;;4873236;29;20844;-83
2023/04/22 12:19:54;;;;;;;1.48;1.30;;;;;;;;;;4909294;29;20039;-81
2023/04/22 12:22:24;;;;;;;4.32;2.03;;;;;;;;;;4895168;29;20028;-84
2023/04/22 12:24:49;;;;;;;;;;;;;;;;;;4887344;29;20028;-83
2023/04/22 12:27:15;;;;;;;2.63;2.33;;;;;;;;;;4901773;29;19914;-81
2023/04/22 12:30:01;;;;;;;3.38;3.08;;;;;;;;;;4870897;29;20766;-86
2023/04/22 12:32:27;;;;;;;3.35;1.88;;;;;;;;;;4885074;29;20111;-85
2023/04/22 12:34:53;;;;;;;3.13;2.13;;;;;;;;;;4906180;29;20036;-83
2023/04/22 12:37:18;;;;;;;3.50;2.55;;;;;;;;;;4890516;29;20043;-81
2023/04/22 12:39:44;;;;;;;3.38;1.77;;;;;;;;;;4896425;29;20529;-87
2023/04/22 12:42:10;;;;;;;2.33;2.13;;;;;;;;;;4886518;29;20032;-85
2023/04/22 12:44:35;;;;;;;3.35;2.00;;;;;;;;;;4903400;29;20039;-86
2023/04/22 12:47:06;;;;;;;2.90;2.70;;;;;;;;;;4891090;29;20024;-86
2023/04/22 12:49:32;;;;;;;3.13;2.55;;;;;;;;;;4911481;29;20450;-81
2023/04/22 12:52:05;;;;;;;4.07;2.17;;;;;;;;;;4934065;29;20028;-82
2023/04/22 12:54:30;;;;;;;2.75;2.15;;;;;;;;;;4890377;29;20060;-83
2023/04/22 12:56:56;;;;;;;4.05;1.85;;;;;;;;;;4904766;29;20028;-85
2023/04/22 12:59:21;;;;;;;2.17;2.00;;;;;;;;;;4889205;29;20024;-83
2023/04/22 13:01:47;;;;;;;2.40;1.83;;;;;;;;;;4888401;29;20087;-81
2023/04/22 13:04:12;;;;;;;3.65;2.08;;;;;;;;;;4889392;29;20454;-81
2023/04/22 13:06:38;;;;;;;4.35;1.50;;;;;;;;;;4905934;29;20726;-81
2023/04/22 13:09:03;;;;;;;2.78;1.70;;;;;;;;;;4888941;29;20024;-86
2023/04/22 13:11:29;;;;;;;4.25;1.83;;;;;;;;;;4888670;29;20031;-82
2023/04/22 13:13:54;;;;;;;3.72;1.92;;;;;;;;;;4888700;29;20115;-81
2023/04/22 13:16:20;;;;;;;2.27;1.60;;;;;;;;;;4906206;29;21009;-81
2023/04/22 13:18:45;;;;;;;2.10;1.83;;;;;;;;;;4905815;29;20264;-82
2023/04/22 13:21:12;;;;;;;2.90;1.92;;;;;;;;;;4906561;29;20353;-81
2023/04/22 13:23:38;;;;;;;3.38;1.75;;;;;;;;;;4906020;29;20024;-80
2023/04/22 13:26:04;;;;;;;2.30;1.60;;;;;;;;;;4886141;29;20040;-81
2023/04/22 13:28:29;;;;;;;2.53;1.80;;;;;;;;;;4895112;29;20426;-80
2023/04/22 13:30:54;;;;;;;4.07;2.10;;;;;;;;;;4888818;29;20115;-83
2023/04/22 13:33:20;;;;;;;6.68;2.03;;;;;;;;;;4888387;29;20520;-81
2023/04/22 13:35:45;;;;;;;3.40;2.33;;;;;;;;;;4889386;29;20020;-81
2023/04/22 13:38:10;;;;;;;4.22;1.77;;;;;;;;;;4888998;29;20020;-83
2023/04/22 13:40:36;;;;;;;3.88;2.00;;;;;;;;;;4888073;29;20516;-82
2023/04/22 13:43:01;;;;;;;5.05;2.00;;;;;;;;;;4888852;29;20028;-81
2023/04/22 13:45:26;;;;;;;3.05;2.40;;;;;;;;;;4886710;29;20475;-84
2023/04/22 13:47:52;;;;;;;3.78;2.00;;;;;;;;;;4871928;29;20551;-79
2023/04/22 13:50:17;;;;;;;6.88;2.15;;;;;;;;;;4894795;29;20052;-80
2023/04/22 13:52:43;;;;;;;2.20;2.05;;;;;;;;;;4882928;29;20034;-81
2023/04/22 13:55:08;;;;;;;4.57;2.08;;;;;;;;;;4892462;29;20519;-81
2023/04/22 13:57:34;;;;;;;3.22;2.10;;;;;;;;;;4879575;29;20025;-78
2023/04/22 13:59:59;;;;;;;3.72;2.20;;;;;;;;;;4885565;29;20409;-81
2023/04/22 14:02:24;;;;;;;6.25;2.22;;;;;;;;;;4878346;29;20024;-81
2023/04/22 14:04:50;;;;;;;3.10;2.13;;;;;;;;;;4899118;29;20067;-83
2023/04/22 14:07:17;;;;;;;2.95;2.50;;;;;;;;;;4868452;29;20526;-83
2023/04/22 14:09:43;;;;;;;4.50;2.23;;;;;;;;;;4894560;29;20031;-83
2023/04/22 14:12:10;;;;;;;4.10;2.50;;;;;;;;;;4887084;29;20035;-84
2023/04/22 14:14:35;;;;;;;3.47;2.15;;;;;;;;;;4903751;29;20904;-79
2023/04/22 14:17:00;;;;;;;2.20;2.00;;;;;;;;;;4870946;29;20517;-81
2023/04/22 14:19:27;;;;;;;5.85;2.13;;;;;;;;;;4886455;29;20028;-83
2023/04/22 14:21:53;;;;;;;7.10;2.15;;;;;;;;;;4880300;29;20028;-81
2023/04/22 14:24:18;;;;;;;3.53;1.70;;;;;;;;;;4886035;29;20516;-81
2023/04/22 14:26:43;;;;;;;4.28;1.95;;;;;;;;;;4879869;29;20538;-80
2023/04/22 14:29:09;;;;;;;4.20;1.80;;;;;;;;;;4888415;29;20032;-81
2023/04/22 14:31:36;;;;;;;2.80;1.80;;;;;;;;;;4889263;29;20032;-82